createdAt,value
2018-02-20T00:01:05.348Z,4.22
2018-02-20T00:03:32.985Z,4.24
2018-02-20T00:06:00.596Z,4.24
2018-02-20T00:08:28.272Z,4.25
2018-02-20T00:10:55.891Z,4.21
2018-02-20T00:13:24.544Z,4.24
2018-02-20T00:15:52.198Z,4.26
2018-02-20T00:18:20.661Z,4.29
2018-02-20T00:20:49.134Z,4.25
2018-02-20T00:23:16.784Z,4.25
2018-02-20T00:25:44.427Z,4.20
2018-02-20T00:28:12.101Z,4.13
2018-02-20T00:30:39.739Z,4.09
2018-02-20T00:33:07.411Z,4.10
2018-02-20T00:35:35.059Z,4.08
2018-02-20T00:38:03.583Z,4.04
2018-02-20T00:40:31.706Z,3.95
2018-02-20T00:42:59.345Z,3.91
2018-02-20T00:45:26.952Z,3.90
2018-02-20T00:47:54.613Z,3.91
2018-02-20T00:50:22.221Z,3.86
2018-02-20T00:52:50.123Z,3.85
2018-02-20T00:55:18.563Z,3.73
2018-02-20T00:57:46.231Z,3.70
2018-02-20T01:00:14.796Z,3.70
2018-02-20T01:02:42.438Z,3.67
2018-02-20T01:05:10.054Z,3.59
2018-02-20T01:07:38.945Z,3.41
2018-02-20T01:10:06.572Z,3.39
2018-02-20T01:12:34.584Z,3.39
2018-02-20T01:15:02.192Z,3.46
2018-02-20T01:17:30.381Z,3.41
2018-02-20T01:19:58.012Z,3.40
2018-02-20T01:22:26.396Z,3.38
2018-02-20T01:24:54.007Z,3.35
2018-02-20T01:27:21.645Z,3.33
2018-02-20T01:29:50.040Z,3.34
2018-02-20T01:32:17.932Z,3.38
2018-02-20T01:34:45.540Z,3.37
2018-02-20T01:37:14.095Z,3.35
2018-02-20T01:39:41.760Z,3.36
2018-02-20T01:42:09.634Z,3.39
2018-02-20T01:44:37.607Z,3.37
2018-02-20T01:47:05.276Z,3.31
2018-02-20T01:49:32.965Z,3.28
2018-02-20T01:52:01.405Z,3.31
2018-02-20T01:54:30.494Z,3.25
2018-02-20T01:56:58.979Z,3.22
2018-02-20T01:59:26.741Z,3.24
2018-02-20T02:01:54.384Z,3.25
2018-02-20T02:04:22.231Z,3.25
2018-02-20T02:06:50.040Z,3.25
2018-02-20T02:09:17.676Z,3.28
2018-02-20T02:11:45.491Z,3.26
2018-02-20T02:14:13.149Z,3.27
2018-02-20T02:16:40.851Z,3.21
2018-02-20T02:19:09.416Z,3.25
2018-02-20T02:21:37.113Z,3.18
2018-02-20T02:24:04.867Z,3.14
2018-02-20T02:26:32.588Z,3.07
2018-02-20T02:29:00.561Z,2.96
2018-02-20T02:31:29.290Z,2.77
2018-02-20T02:33:57.855Z,2.67
2018-02-20T02:36:26.443Z,2.70
2018-02-20T02:38:54.852Z,2.67
2018-02-20T02:41:23.459Z,2.70
2018-02-20T02:43:51.151Z,2.75
2018-02-20T02:46:18.837Z,2.72
2018-02-20T02:48:46.592Z,2.63
2018-02-20T02:51:14.783Z,2.67
2018-02-20T02:53:42.495Z,2.71
2018-02-20T02:56:10.102Z,2.59
2018-02-20T02:58:38.628Z,2.54
2018-02-20T03:01:06.346Z,2.52
2018-02-20T03:03:34.132Z,2.48
2018-02-20T03:06:01.847Z,2.53
2018-02-20T03:08:29.491Z,2.44
2018-02-20T03:10:57.232Z,2.36
2018-02-20T03:13:25.852Z,2.41
2018-02-20T03:15:53.556Z,2.42
2018-02-20T03:18:21.295Z,2.44
2018-02-20T03:20:49.151Z,2.38
2018-02-20T03:23:16.869Z,2.39
2018-02-20T03:25:45.395Z,2.41
2018-02-20T03:28:13.712Z,2.37
2018-02-20T03:30:41.332Z,2.34
2018-02-20T03:33:10.267Z,2.36
2018-02-20T03:35:37.995Z,2.27
2018-02-20T03:38:06.471Z,2.16
2018-02-20T03:40:34.154Z,2.17
2018-02-20T03:43:01.883Z,2.15
2018-02-20T03:45:29.587Z,2.17
2018-02-20T03:47:57.323Z,2.20
2018-02-20T03:50:25.335Z,2.10
2018-02-20T03:52:53.227Z,2.04
2018-02-20T03:55:21.690Z,2.08
2018-02-20T03:57:49.446Z,2.15
2018-02-20T04:00:17.300Z,2.21
2018-02-20T04:02:45.574Z,2.14
2018-02-20T04:05:13.247Z,2.13
2018-02-20T04:07:41.323Z,2.11
2018-02-20T04:10:09.036Z,2.13
2018-02-20T04:12:37.796Z,2.16
2018-02-20T04:15:05.485Z,2.26
2018-02-20T04:17:33.212Z,2.31
2018-02-20T04:20:00.931Z,2.37
2018-02-20T04:22:28.643Z,2.35
2018-02-20T04:24:57.101Z,2.23
2018-02-20T04:27:24.848Z,2.15
2018-02-20T04:29:52.704Z,2.16
2018-02-20T04:32:20.418Z,2.12
2018-02-20T04:34:48.397Z,2.08
2018-02-20T04:37:16.506Z,2.08
2018-02-20T04:39:44.204Z,2.13
2018-02-20T04:42:12.708Z,2.19
2018-02-20T04:44:41.143Z,2.24
2018-02-20T04:47:08.864Z,2.09
2018-02-20T04:49:36.547Z,2.06
2018-02-20T04:52:04.273Z,2.06
2018-02-20T04:54:32.012Z,2.07
2018-02-20T04:56:59.883Z,2.12
2018-02-20T04:59:27.608Z,2.13
2018-02-20T05:01:55.322Z,2.16
2018-02-20T05:04:23.006Z,2.18
2018-02-20T05:06:50.844Z,2.20
2018-02-20T05:09:18.868Z,2.19
2018-02-20T05:11:47.163Z,2.25
2018-02-20T05:14:14.853Z,2.25
2018-02-20T05:16:43.467Z,2.12
2018-02-20T05:19:11.152Z,1.96
2018-02-20T05:21:38.905Z,1.91
2018-02-20T05:24:06.887Z,1.75
2018-02-20T05:26:34.617Z,1.59
2018-02-20T05:29:02.360Z,1.50
2018-02-20T05:31:30.092Z,1.48
2018-02-20T05:33:58.103Z,1.47
2018-02-20T05:36:25.889Z,1.47
2018-02-20T05:38:53.827Z,1.47
2018-02-20T05:41:22.455Z,1.45
2018-02-20T05:43:50.159Z,1.48
2018-02-20T05:46:17.929Z,2.14
2018-02-20T05:48:45.667Z,2.95
2018-02-20T05:51:13.427Z,3.62
2018-02-20T05:53:42.084Z,3.89
2018-02-20T05:56:09.732Z,3.52
2018-02-20T05:58:37.368Z,3.17
2018-02-20T06:01:05.001Z,2.87
2018-02-20T06:03:32.647Z,2.58
2018-02-20T06:06:00.322Z,2.33
2018-02-20T06:08:28.766Z,2.06
2018-02-20T06:10:57.292Z,1.81
2018-02-20T06:13:26.417Z,1.75
2018-02-20T06:15:54.494Z,1.66
2018-02-20T06:18:22.212Z,1.44
2018-02-20T06:20:50.609Z,1.38
2018-02-20T06:23:19.058Z,1.26
2018-02-20T06:25:46.831Z,1.19
2018-02-20T06:28:15.428Z,1.12
2018-02-20T06:30:43.919Z,1.15
2018-02-20T06:33:11.652Z,1.17
2018-02-20T06:35:39.428Z,1.07
2018-02-20T06:38:07.432Z,1.00
2018-02-20T06:40:35.152Z,0.99
2018-02-20T06:43:02.841Z,1.08
2018-02-20T06:45:30.627Z,1.15
2018-02-20T06:47:58.892Z,1.23
2018-02-20T06:50:27.207Z,1.15
2018-02-20T07:05:57.898Z,1.15
2018-02-20T07:08:25.727Z,1.13
2018-02-20T07:10:53.446Z,0.97
2018-02-20T07:13:21.181Z,0.72
2018-02-20T07:15:48.898Z,0.46
2018-02-20T07:18:16.586Z,0.41
2018-02-20T07:20:44.385Z,0.55
2018-02-20T07:23:12.131Z,0.69
2018-02-20T07:25:39.822Z,0.84
2018-02-20T07:28:07.536Z,0.96
2018-02-20T07:30:35.473Z,1.03
2018-02-20T07:33:03.186Z,1.14
2018-02-20T07:35:31.046Z,1.28
2018-02-20T07:37:58.850Z,1.21
2018-02-20T07:40:26.768Z,1.21
2018-02-20T07:42:54.697Z,1.24
2018-02-20T07:45:22.764Z,1.28
2018-02-20T07:47:50.565Z,1.29
2018-02-20T07:50:18.300Z,1.39
2018-02-20T07:52:46.045Z,1.50
2018-02-20T07:55:13.758Z,1.45
2018-02-20T07:57:41.593Z,1.38
2018-02-20T08:00:09.321Z,1.40
2018-02-20T08:02:37.019Z,1.52
2018-02-20T08:05:04.824Z,1.62
2018-02-20T08:07:32.505Z,1.75
2018-02-20T08:10:00.317Z,1.88
2018-02-20T08:12:28.000Z,1.93
2018-02-20T08:14:55.707Z,1.78
2018-02-20T08:17:23.396Z,1.80
2018-02-20T08:19:51.093Z,1.92
2018-02-20T08:22:18.773Z,2.04
2018-02-20T08:24:46.491Z,2.08
2018-02-20T08:27:14.163Z,2.05
2018-02-20T08:29:41.903Z,1.87
2018-02-20T08:32:09.638Z,1.78
2018-02-20T08:34:37.336Z,1.72
2018-02-20T08:37:05.066Z,1.63
2018-02-20T08:39:32.779Z,1.65
2018-02-20T08:42:00.461Z,1.68
2018-02-20T08:44:28.189Z,1.74
2018-02-20T08:46:55.866Z,1.77
2018-02-20T08:49:23.722Z,1.82
2018-02-20T08:51:51.506Z,1.89
2018-02-20T08:54:19.198Z,1.94
2018-02-20T08:56:46.912Z,1.97
2018-02-20T08:59:14.590Z,2.00
2018-02-20T09:01:42.300Z,2.07
2018-02-20T09:04:09.969Z,2.06
2018-02-20T09:06:37.692Z,2.11
2018-02-20T09:09:05.377Z,2.18
2018-02-20T09:11:33.087Z,2.17
2018-02-20T09:14:00.782Z,2.28
2018-02-20T09:16:28.515Z,2.35
2018-02-20T09:18:56.276Z,2.49
2018-02-20T09:21:24.048Z,2.52
2018-02-20T09:23:51.929Z,2.59
2018-02-20T09:26:19.655Z,2.74
2018-02-20T09:28:47.379Z,2.84
2018-02-20T09:31:15.121Z,2.93
2018-02-20T09:33:42.820Z,3.00
2018-02-20T09:36:10.554Z,3.06
2018-02-20T09:38:38.314Z,3.15
2018-02-20T09:41:07.847Z,3.26
2018-02-20T09:43:35.536Z,3.34
2018-02-20T09:46:03.550Z,3.35
2018-02-20T09:48:31.136Z,3.47
2018-02-20T09:50:58.972Z,3.56
2018-02-20T09:53:26.680Z,3.63
2018-02-20T09:55:54.426Z,3.78
2018-02-20T09:58:22.103Z,3.96
2018-02-20T10:00:49.821Z,4.04
2018-02-20T10:03:17.620Z,4.21
2018-02-20T10:05:45.381Z,4.39
2018-02-20T10:08:13.026Z,4.58
2018-02-20T10:10:40.658Z,4.64
2018-02-20T10:13:08.318Z,4.67
2018-02-20T10:15:35.950Z,4.78
2018-02-20T10:18:03.625Z,4.92
2018-02-20T10:20:31.290Z,4.86
2018-02-20T10:22:58.886Z,4.93
2018-02-20T10:25:26.486Z,5.03
2018-02-20T10:27:54.250Z,5.11
2018-02-20T10:30:21.838Z,5.20
2018-02-20T10:32:49.485Z,5.41
2018-02-20T10:35:17.091Z,5.56
2018-02-20T10:37:44.719Z,5.77
2018-02-20T10:40:12.314Z,6.02
2018-02-20T10:42:39.988Z,6.35
2018-02-20T10:45:07.650Z,6.75
2018-02-20T10:47:35.277Z,7.01
2018-02-20T10:50:02.881Z,7.11
2018-02-20T11:08:12.096Z,7.19
2018-02-20T11:10:39.726Z,7.43
2018-02-20T11:13:07.323Z,7.86
2018-02-20T11:15:34.944Z,7.98
2018-02-20T11:18:02.562Z,8.25
2018-02-20T11:20:30.231Z,8.50
2018-02-20T11:22:57.832Z,8.72
2018-02-20T11:25:25.466Z,8.47
2018-02-20T11:27:53.062Z,8.43
2018-02-20T11:30:20.705Z,8.48
2018-02-20T11:32:48.300Z,8.77
2018-02-20T11:35:15.929Z,9.06
2018-02-20T11:37:43.530Z,8.93
2018-02-20T11:40:11.153Z,9.08
2018-02-20T11:42:38.763Z,9.25
2018-02-20T11:45:06.379Z,9.37
2018-02-20T11:47:33.987Z,9.51
2018-02-20T11:50:01.607Z,9.96
2018-02-20T11:52:29.199Z,9.43
2018-02-20T11:54:56.830Z,9.15
2018-02-20T11:57:24.422Z,8.80
2018-02-20T11:59:52.050Z,8.92
2018-02-20T12:02:19.662Z,9.11
2018-02-20T12:04:47.315Z,9.07
2018-02-20T12:07:14.907Z,9.15
2018-02-20T12:09:42.531Z,9.25
2018-02-20T12:12:10.115Z,8.98
2018-02-20T12:14:37.731Z,8.69
2018-02-20T12:17:05.330Z,8.51
2018-02-20T12:19:33.183Z,8.66
2018-02-20T12:22:00.789Z,8.59
2018-02-20T12:24:28.626Z,8.15
2018-02-20T12:26:56.225Z,8.15
2018-02-20T12:29:23.862Z,8.31
2018-02-20T12:31:51.591Z,8.39
2018-02-20T12:34:19.215Z,8.38
2018-02-20T12:36:47.009Z,8.49
2018-02-20T12:39:14.635Z,8.27
2018-02-20T12:41:42.247Z,8.29
2018-02-20T12:44:09.854Z,8.37
2018-02-20T12:46:37.455Z,8.29
2018-02-20T12:49:05.123Z,8.34
2018-02-20T12:51:32.706Z,8.29
2018-02-20T12:54:00.358Z,8.43
2018-02-20T12:56:27.951Z,8.50
2018-02-20T12:58:55.569Z,8.49
2018-02-20T13:01:23.418Z,8.50
2018-02-20T13:03:51.047Z,8.47
2018-02-20T13:06:18.679Z,8.52
2018-02-20T13:08:46.346Z,8.72
2018-02-20T13:11:13.979Z,8.78
2018-02-20T13:13:41.609Z,8.73
2018-02-20T13:16:09.211Z,8.76
2018-02-20T13:18:36.846Z,8.85
2018-02-20T13:21:04.438Z,8.88
2018-02-20T13:23:32.082Z,8.86
2018-02-20T13:25:59.671Z,8.84
2018-02-20T13:28:27.447Z,8.94
2018-02-20T13:30:57.015Z,8.86
2018-02-20T13:33:24.646Z,8.85
2018-02-20T13:35:52.243Z,9.04
2018-02-20T13:38:19.862Z,9.52
2018-02-20T13:40:47.467Z,10.14
2018-02-20T13:43:15.098Z,10.69
2018-02-20T13:45:42.742Z,11.25
2018-02-20T13:48:10.350Z,11.19
2018-02-20T13:50:37.943Z,11.34
2018-02-20T13:53:05.582Z,11.31
2018-02-20T13:55:33.312Z,10.91
2018-02-20T13:58:00.954Z,10.77
2018-02-20T14:00:28.596Z,10.84
2018-02-20T14:02:56.275Z,10.70
2018-02-20T14:05:23.935Z,10.82
2018-02-20T14:07:51.534Z,10.54
2018-02-20T14:10:19.142Z,10.50
2018-02-20T14:12:46.762Z,10.41
2018-02-20T14:15:14.371Z,10.56
2018-02-20T14:17:42.005Z,10.85
2018-02-20T14:20:09.602Z,10.72
2018-02-20T14:22:37.282Z,10.83
2018-02-20T14:25:05.075Z,10.64
2018-02-20T14:27:32.690Z,10.64
2018-02-20T14:30:00.291Z,10.19
2018-02-20T14:32:28.025Z,9.50
2018-02-20T14:34:55.631Z,9.25
2018-02-20T14:37:23.346Z,9.08
2018-02-20T14:39:50.986Z,8.97
2018-02-20T14:42:18.608Z,8.79
2018-02-20T14:44:46.214Z,8.71
2018-02-20T14:47:13.844Z,8.87
2018-02-20T14:49:41.442Z,9.07
2018-02-20T14:52:09.328Z,9.18
2018-02-20T14:54:36.931Z,9.22
2018-02-20T14:57:04.817Z,9.41
2018-02-20T14:59:32.411Z,9.45
2018-02-20T15:02:00.062Z,9.39
2018-02-20T15:04:27.682Z,9.29
2018-02-20T15:06:55.337Z,9.09
2018-02-20T15:09:23.190Z,9.04
2018-02-20T15:11:50.835Z,9.11
2018-02-20T15:14:18.494Z,9.22
2018-02-20T15:16:46.111Z,9.26
2018-02-20T15:19:13.734Z,9.41
2018-02-20T15:21:41.390Z,9.11
2018-02-20T15:24:08.991Z,8.98
2018-02-20T15:26:36.626Z,9.27
2018-02-20T15:29:04.242Z,9.50
2018-02-20T15:31:31.884Z,9.41
2018-02-20T15:33:59.470Z,9.40
2018-02-20T15:36:27.131Z,9.57
2018-02-20T15:38:54.738Z,9.61
2018-02-20T15:41:22.379Z,9.71
2018-02-20T15:43:49.988Z,9.73
2018-02-20T15:46:17.608Z,9.56
2018-02-20T15:48:45.327Z,9.24
2018-02-20T15:51:12.967Z,9.04
2018-02-20T15:53:40.570Z,8.88
2018-02-20T15:56:08.191Z,8.83
2018-02-20T15:58:35.778Z,8.79
2018-02-20T16:01:03.423Z,8.69
2018-02-20T16:03:31.047Z,8.48
2018-02-20T16:05:58.767Z,8.28
2018-02-20T16:08:26.373Z,8.16
2018-02-20T16:10:54.019Z,8.02
2018-02-20T16:13:21.774Z,7.95
2018-02-20T16:15:53.044Z,7.76
2018-02-20T16:18:20.647Z,7.66
2018-02-20T16:20:48.306Z,7.53
2018-02-20T16:23:15.902Z,7.54
2018-02-20T16:25:43.550Z,7.47
2018-02-20T16:28:11.143Z,7.46
2018-02-20T16:30:38.799Z,7.44
2018-02-20T16:33:06.518Z,7.38
2018-02-20T16:35:34.142Z,7.39
2018-02-20T16:38:01.770Z,7.35
2018-02-20T16:40:29.378Z,7.32
2018-02-20T16:42:57.151Z,7.32
2018-02-20T16:45:24.827Z,7.26
2018-02-20T16:47:52.453Z,7.16
2018-02-20T16:50:20.063Z,7.13
2018-02-20T16:52:47.859Z,7.05
2018-02-20T16:55:15.483Z,6.98
2018-02-20T16:57:43.118Z,6.97
2018-02-20T17:00:10.734Z,6.92
2018-02-20T17:02:38.420Z,6.90
2018-02-20T17:05:06.002Z,6.81
2018-02-20T17:07:33.631Z,6.80
2018-02-20T17:10:01.228Z,6.74
2018-02-20T17:12:28.993Z,6.72
2018-02-20T17:14:56.679Z,6.73
2018-02-20T17:17:24.317Z,6.74
2018-02-20T17:19:52.168Z,6.79
2018-02-20T17:22:19.807Z,6.82
2018-02-20T17:24:47.439Z,6.79
2018-02-20T17:27:15.082Z,6.78
2018-02-20T17:29:42.695Z,6.77
2018-02-20T17:32:10.315Z,6.71
2018-02-20T17:34:38.026Z,6.70
2018-02-20T17:37:05.660Z,6.65
2018-02-20T17:39:33.261Z,6.63
2018-02-20T17:42:00.912Z,6.59
2018-02-20T17:44:28.508Z,6.56
2018-02-20T17:46:56.147Z,6.55
2018-02-20T17:49:23.743Z,6.53
2018-02-20T17:51:51.403Z,6.46
2018-02-20T17:54:19.012Z,6.40
2018-02-20T17:56:46.838Z,6.35
2018-02-20T17:59:14.459Z,6.30
2018-02-20T18:01:42.102Z,6.30
2018-02-20T18:04:09.709Z,6.30
2018-02-20T18:06:37.347Z,6.31
2018-02-20T18:09:05.835Z,6.26
2018-02-20T18:11:33.495Z,6.27
2018-02-20T18:14:01.139Z,6.24
2018-02-20T18:16:28.836Z,6.23
2018-02-20T18:18:56.509Z,6.16
2018-02-20T18:21:24.138Z,6.13
2018-02-20T18:23:51.728Z,6.11
2018-02-20T18:26:19.370Z,6.07
2018-02-20T18:28:47.172Z,6.07
2018-02-20T18:31:14.791Z,6.06
2018-02-20T18:33:42.384Z,6.04
2018-02-20T18:36:10.055Z,6.00
2018-02-20T18:38:37.655Z,5.99
2018-02-20T18:41:05.460Z,5.98
2018-02-20T18:43:33.062Z,6.05
2018-02-20T18:46:00.702Z,6.03
2018-02-20T18:48:28.311Z,5.98
2018-02-20T18:50:55.980Z,5.97
2018-02-20T18:53:23.602Z,5.97
2018-02-20T18:55:51.231Z,5.92
2018-02-20T18:58:18.945Z,5.85
2018-02-20T19:00:46.601Z,5.78
2018-02-20T19:03:14.215Z,5.74
2018-02-20T19:05:41.861Z,5.71
2018-02-20T19:08:09.467Z,5.67
2018-02-20T19:10:37.251Z,5.68
2018-02-20T19:13:04.854Z,5.61
2018-02-20T19:15:32.467Z,5.59
2018-02-20T19:18:00.086Z,5.60
2018-02-20T19:20:27.733Z,5.58
2018-02-20T19:22:55.337Z,5.58
2018-02-20T19:25:23.140Z,5.56
2018-02-20T19:27:50.735Z,5.52
2018-02-20T19:30:18.367Z,5.50
2018-02-20T19:32:45.963Z,5.53
2018-02-20T19:35:13.603Z,5.56
2018-02-20T19:37:41.202Z,5.51
2018-02-20T19:40:08.845Z,5.47
2018-02-20T19:42:36.456Z,5.45
2018-02-20T19:45:04.116Z,5.35
2018-02-20T19:47:31.737Z,5.35
2018-02-20T19:49:59.396Z,5.30
2018-02-20T19:52:27.017Z,5.27
2018-02-20T19:54:54.687Z,5.26
2018-02-20T19:57:22.423Z,5.24
2018-02-20T19:59:50.075Z,5.13
2018-02-20T20:02:17.712Z,4.82
2018-02-20T20:04:45.439Z,4.67
2018-02-20T20:07:13.094Z,4.65
2018-02-20T20:09:40.783Z,4.70
2018-02-20T20:12:08.418Z,4.79
2018-02-20T20:14:36.043Z,4.84
2018-02-20T20:17:03.671Z,4.88
2018-02-20T20:19:31.290Z,4.94
2018-02-20T20:21:58.936Z,4.99
2018-02-20T20:24:26.591Z,4.99
2018-02-20T20:26:54.233Z,5.04
2018-02-20T20:29:21.851Z,5.02
2018-02-20T20:31:49.483Z,4.99
2018-02-20T20:34:17.108Z,4.97
2018-02-20T20:36:44.746Z,4.99
2018-02-20T20:39:12.346Z,5.00
2018-02-20T20:41:40.019Z,4.98
2018-02-20T20:44:07.647Z,4.92
2018-02-20T20:46:35.305Z,4.91
2018-02-20T20:49:02.962Z,4.88
2018-02-20T20:51:30.599Z,4.87
2018-02-20T20:53:58.196Z,4.85
2018-02-20T20:56:25.826Z,4.85
2018-02-20T20:58:53.447Z,4.85
2018-02-20T21:01:21.091Z,4.81
2018-02-20T21:03:48.682Z,4.76
2018-02-20T21:06:16.322Z,4.71
2018-02-20T21:08:43.926Z,4.69
2018-02-20T21:11:11.578Z,4.70
2018-02-20T21:13:39.176Z,4.73
2018-02-20T21:16:06.838Z,4.75
2018-02-20T21:18:34.531Z,4.69
2018-02-20T21:21:02.198Z,4.71
2018-02-20T21:23:29.794Z,4.70
2018-02-20T21:25:57.442Z,4.72
2018-02-20T21:28:25.087Z,4.70
2018-02-20T21:30:52.706Z,4.66
2018-02-20T21:33:20.297Z,4.61
2018-02-20T21:35:47.926Z,4.57
2018-02-20T21:38:15.514Z,4.56
2018-02-20T21:40:43.155Z,4.55
2018-02-20T21:43:10.972Z,4.52
2018-02-20T21:45:38.613Z,4.51
2018-02-20T21:48:06.200Z,4.50
2018-02-20T21:50:33.882Z,4.47
2018-02-20T21:53:01.513Z,4.35
2018-02-20T21:55:29.299Z,4.33
2018-02-20T21:57:57.670Z,4.28
2018-02-20T22:00:25.292Z,4.27
2018-02-20T22:02:52.882Z,4.29
2018-02-20T22:05:20.575Z,4.26
2018-02-20T22:07:48.209Z,4.20
2018-02-20T22:10:15.840Z,4.21
2018-02-20T22:12:43.452Z,4.15
2018-02-20T22:15:11.267Z,4.17
2018-02-20T22:17:38.867Z,4.14
2018-02-20T22:20:06.549Z,4.10
2018-02-20T22:22:34.153Z,4.12
2018-02-20T22:25:01.906Z,4.06
2018-02-20T22:27:29.551Z,4.06
2018-02-20T22:29:57.179Z,4.02
2018-02-20T22:32:24.943Z,3.95
2018-02-20T22:34:52.697Z,3.91
2018-02-20T22:37:20.315Z,3.96
2018-02-20T22:39:47.935Z,3.98
2018-02-20T22:42:15.532Z,3.96
2018-02-20T22:44:43.302Z,3.95
2018-02-20T22:47:10.892Z,3.90
2018-02-20T22:49:38.511Z,3.94
2018-02-20T22:52:06.102Z,3.91
2018-02-20T22:54:33.750Z,3.87
2018-02-20T22:57:01.347Z,3.85
2018-02-20T22:59:28.947Z,3.87
2018-02-20T23:01:56.578Z,3.88
2018-02-20T23:04:24.197Z,3.88
2018-02-20T23:06:51.807Z,3.87
2018-02-20T23:09:19.402Z,3.83
2018-02-20T23:11:47.747Z,3.82
2018-02-20T23:14:15.412Z,3.77
2018-02-20T23:16:43.034Z,3.71
2018-02-20T23:19:10.663Z,3.70
2018-02-20T23:21:38.287Z,3.70
2018-02-20T23:24:05.887Z,3.71
2018-02-20T23:26:33.646Z,3.67
2018-02-20T23:29:01.268Z,3.65
2018-02-20T23:31:28.899Z,3.61
2018-02-20T23:33:56.544Z,3.60
2018-02-20T23:36:24.162Z,3.59
2018-02-20T23:38:51.779Z,3.59
2018-02-20T23:41:19.393Z,3.57
2018-02-20T23:43:46.985Z,3.59
2018-02-20T23:46:14.862Z,3.56
2018-02-20T23:48:42.445Z,3.58
2018-02-20T23:51:15.662Z,3.56
2018-02-20T23:53:43.252Z,3.55
2018-02-20T23:56:10.862Z,3.50
2018-02-20T23:58:38.549Z,3.37
